createdAt,value
2022-10-31T00:04:08.728Z,96236.63
2022-10-31T00:09:10.526Z,96243.25
2022-10-31T00:14:11.942Z,96242.78
2022-10-31T00:19:13.421Z,96248.88
2022-10-31T00:24:14.944Z,96248.00
2022-10-31T00:29:16.344Z,96244.38
2022-10-31T00:34:17.732Z,96231.09
2022-10-31T00:39:19.118Z,96240.47
2022-10-31T00:44:20.897Z,96234.72
2022-10-31T00:49:22.423Z,96236.28
2022-10-31T00:54:24.510Z,96239.16
2022-10-31T00:59:25.989Z,96223.50
2022-10-31T01:04:27.425Z,96228.78
2022-10-31T01:09:30.284Z,96234.41
2022-10-31T01:14:31.696Z,96231.88
2022-10-31T01:19:33.232Z,96223.41
2022-10-31T01:24:34.865Z,96228.19
2022-10-31T01:29:37.187Z,96228.06
2022-10-31T01:34:38.585Z,96224.84
2022-10-31T01:39:39.997Z,96218.59
2022-10-31T01:44:41.358Z,96213.06
2022-10-31T01:50:03.446Z,96218.94
2022-10-31T01:55:17.184Z,96226.97
2022-10-31T02:00:20.945Z,96212.69
2022-10-31T02:05:26.612Z,96217.16
2022-10-31T02:10:31.255Z,96207.44
2022-10-31T02:15:33.855Z,96208.03
2022-10-31T02:20:50.229Z,96219.53
2022-10-31T02:26:18.781Z,96203.84
2022-10-31T02:31:33.776Z,96205.88
2022-10-31T02:36:47.016Z,96211.63
2022-10-31T02:42:04.927Z,96204.28
2022-10-31T02:47:12.220Z,96205.84
2022-10-31T02:52:34.840Z,96206.81
2022-10-31T02:57:41.083Z,96203.13
2022-10-31T03:02:48.565Z,96202.75
2022-10-31T03:08:07.436Z,96203.59
2022-10-31T03:13:13.695Z,96199.97
2022-10-31T03:18:29.066Z,96201.25
2022-10-31T03:23:32.945Z,96191.19
2022-10-31T03:28:45.196Z,96188.31
2022-10-31T03:33:50.141Z,96192.13
2022-10-31T03:38:52.285Z,96189.75
2022-10-31T03:43:58.921Z,96190.66
2022-10-31T03:49:01.427Z,96190.53
2022-10-31T03:54:14.665Z,96187.78
2022-10-31T03:59:22.306Z,96184.97
2022-10-31T04:04:27.253Z,96178.19
2022-10-31T04:09:33.217Z,96171.81
2022-10-31T04:14:38.196Z,96165.03
2022-10-31T04:19:39.760Z,96168.13
2022-10-31T04:24:41.931Z,96154.72
2022-10-31T04:29:48.364Z,96159.63
2022-10-31T04:34:52.418Z,96152.22
2022-10-31T04:39:53.867Z,96155.50
2022-10-31T04:45:16.872Z,96153.22
2022-10-31T04:50:23.370Z,96145.47
2022-10-31T04:55:25.808Z,96144.59
2022-10-31T05:00:52.908Z,96151.31
2022-10-31T05:05:54.407Z,96137.38
2022-10-31T05:10:57.360Z,96138.41
2022-10-31T05:16:02.037Z,96137.53
2022-10-31T05:21:21.764Z,96133.59
2022-10-31T05:26:26.920Z,96123.53
2022-10-31T05:31:30.158Z,96121.81
2022-10-31T05:36:31.680Z,96113.91
2022-10-31T05:41:35.378Z,96116.81
2022-10-31T05:46:44.439Z,96111.94
2022-10-31T05:52:04.279Z,96101.91
2022-10-31T05:57:15.304Z,96107.50
2022-10-31T06:02:17.312Z,96111.00
2022-10-31T06:07:37.021Z,96105.50
2022-10-31T06:12:39.106Z,96113.28
2022-10-31T06:18:03.833Z,96114.28
2022-10-31T06:23:09.326Z,96113.97
2022-10-31T06:28:10.828Z,96122.34
2022-10-31T06:33:35.122Z,96115.78
2022-10-31T06:38:37.091Z,96110.81
2022-10-31T06:43:42.429Z,96119.59
2022-10-31T06:49:07.265Z,96120.31
2022-10-31T06:54:17.600Z,96119.31
2022-10-31T06:59:19.680Z,96125.56
2022-10-31T07:04:41.062Z,96129.69
2022-10-31T07:09:43.425Z,96123.94
2022-10-31T07:14:46.612Z,96122.19
2022-10-31T07:19:48.532Z,96124.47
2022-10-31T07:24:52.189Z,96121.31
2022-10-31T07:29:53.588Z,96130.53
2022-10-31T07:34:55.036Z,96119.34
2022-10-31T07:39:58.489Z,96116.44
2022-10-31T07:45:00.080Z,96126.47
2022-10-31T07:50:23.462Z,96118.19
2022-10-31T07:55:57.184Z,96118.25
2022-10-31T08:01:04.239Z,96116.94
2022-10-31T08:06:14.758Z,96120.25
2022-10-31T08:11:34.651Z,96111.44
2022-10-31T08:16:37.188Z,96108.53
2022-10-31T08:21:41.220Z,96105.06
2022-10-31T08:26:44.402Z,96110.63
2022-10-31T08:31:46.954Z,96106.44
2022-10-31T08:37:08.299Z,96111.50
2022-10-31T08:42:16.453Z,96099.53
2022-10-31T08:47:18.201Z,96104.66
2022-10-31T08:52:19.718Z,96100.19
2022-10-31T08:57:23.001Z,96090.56
2022-10-31T09:02:24.640Z,96095.53
2022-10-31T09:07:31.104Z,96092.78
2022-10-31T09:12:33.804Z,96096.41
2022-10-31T09:17:48.057Z,96092.53
2022-10-31T09:22:58.659Z,96084.63
2022-10-31T09:28:01.945Z,96081.44
2022-10-31T09:33:06.683Z,96079.94
2022-10-31T09:38:14.815Z,96079.59
2022-10-31T09:43:34.619Z,96083.31
2022-10-31T09:49:06.733Z,96085.00
2022-10-31T09:54:36.618Z,96085.59
2022-10-31T09:59:41.498Z,96087.56
2022-10-31T10:04:52.422Z,96076.69
2022-10-31T10:09:55.695Z,96062.66
2022-10-31T10:15:37.042Z,96061.91
2022-10-31T10:20:56.949Z,96052.16
2022-10-31T10:26:18.075Z,96041.91
2022-10-31T10:31:28.313Z,96038.53
2022-10-31T10:36:47.189Z,96042.09
2022-10-31T10:41:51.186Z,96033.97
2022-10-31T10:47:00.101Z,96030.22
2022-10-31T10:52:50.162Z,96019.03
2022-10-31T10:57:58.411Z,96013.97
2022-10-31T11:03:00.503Z,96017.44
2022-10-31T11:08:02.825Z,96017.34
2022-10-31T11:13:24.536Z,96013.84
2022-10-31T11:18:28.775Z,96010.88
2022-10-31T11:23:30.946Z,96013.91
2022-10-31T11:28:34.336Z,96018.38
2022-10-31T11:33:47.048Z,96000.28
2022-10-31T11:38:49.115Z,95997.09
2022-10-31T11:44:00.557Z,96004.25
2022-10-31T11:49:03.872Z,95989.41
2022-10-31T11:54:06.412Z,95989.22
2022-10-31T11:59:19.618Z,95989.53
2022-10-31T12:04:39.875Z,95976.16
2022-10-31T12:09:42.243Z,95966.59
2022-10-31T12:15:01.933Z,95958.75
2022-10-31T12:20:31.296Z,95953.28
2022-10-31T12:25:42.439Z,95950.38
2022-10-31T12:31:00.036Z,95943.25
2022-10-31T12:36:27.690Z,95936.16
2022-10-31T12:41:46.859Z,95925.75
2022-10-31T12:47:25.291Z,95910.59
2022-10-31T12:52:49.560Z,95906.91
2022-10-31T12:58:04.267Z,95890.56
2022-10-31T13:03:27.359Z,95880.03
2022-10-31T13:08:48.827Z,95872.94
2022-10-31T13:14:06.698Z,95864.59
2022-10-31T13:19:26.446Z,95856.06
2022-10-31T13:24:36.036Z,95852.25
2022-10-31T13:29:47.765Z,95850.03
2022-10-31T13:34:55.000Z,95831.16
2022-10-31T13:40:22.820Z,95828.09
2022-10-31T13:45:25.999Z,95816.84
2022-10-31T13:50:30.036Z,95821.91
2022-10-31T13:55:44.358Z,95812.41
2022-10-31T14:00:45.991Z,95818.06
2022-10-31T14:05:55.198Z,95815.00
2022-10-31T14:10:57.162Z,95810.97
2022-10-31T14:16:01.144Z,95804.53
2022-10-31T14:21:13.704Z,95795.03
2022-10-31T14:26:23.654Z,95808.22
2022-10-31T14:31:28.095Z,95803.34
2022-10-31T14:36:35.369Z,95787.34
2022-10-31T14:41:55.261Z,95794.00
2022-10-31T14:47:17.009Z,95806.25
2022-10-31T14:52:19.887Z,95793.09
2022-10-31T14:57:35.489Z,95776.78
2022-10-31T15:02:50.819Z,95774.69
2022-10-31T15:07:53.868Z,95772.38
2022-10-31T15:12:55.270Z,95768.84
2022-10-31T15:17:59.950Z,95763.69
2022-10-31T15:23:01.668Z,95764.28
2022-10-31T15:28:14.683Z,95760.00
2022-10-31T15:33:36.764Z,95761.41
2022-10-31T15:38:39.621Z,95760.00
2022-10-31T15:43:41.094Z,95753.22
2022-10-31T15:48:47.705Z,95756.50
2022-10-31T15:53:52.445Z,95755.94
2022-10-31T15:58:55.454Z,95756.41
2022-10-31T16:04:13.193Z,95754.34
2022-10-31T16:09:25.035Z,95759.03
2022-10-31T16:14:29.777Z,95764.25
2022-10-31T16:19:34.687Z,95767.59
2022-10-31T16:24:49.224Z,95759.50
2022-10-31T16:29:50.682Z,95757.28
2022-10-31T16:35:10.799Z,95762.25
2022-10-31T16:40:13.666Z,95759.09
2022-10-31T16:45:24.304Z,95755.84
2022-10-31T16:50:27.877Z,95770.59
2022-10-31T16:55:29.423Z,95776.66
2022-10-31T17:00:30.880Z,95776.66
2022-10-31T17:05:32.258Z,95784.72
2022-10-31T17:10:34.255Z,95774.84
2022-10-31T17:15:49.804Z,95768.25
2022-10-31T17:20:55.557Z,95771.28
2022-10-31T17:25:57.301Z,95778.00
2022-10-31T17:30:58.685Z,95779.94
2022-10-31T17:36:02.897Z,95782.72
2022-10-31T17:41:11.003Z,95776.06
2022-10-31T17:46:13.035Z,95769.69
2022-10-31T17:51:14.469Z,95771.03
2022-10-31T17:56:15.926Z,95782.50
2022-10-31T18:01:18.790Z,95774.38
2022-10-31T18:06:20.331Z,95778.09
2022-10-31T18:11:21.921Z,95769.09
2022-10-31T18:16:23.991Z,95777.41
2022-10-31T18:21:25.706Z,95785.59
2022-10-31T18:26:27.749Z,95783.97
2022-10-31T18:31:29.441Z,95778.50
2022-10-31T18:36:30.979Z,95786.94
2022-10-31T18:41:32.895Z,95793.91
2022-10-31T18:46:35.357Z,95790.72
2022-10-31T18:51:36.796Z,95781.34
2022-10-31T18:56:38.213Z,95788.59
2022-10-31T19:01:40.130Z,95801.16
2022-10-31T19:06:41.691Z,95801.34
2022-10-31T19:11:43.108Z,95818.78
2022-10-31T19:16:44.544Z,95822.50
2022-10-31T19:21:46.350Z,95819.72
2022-10-31T19:26:48.352Z,95822.38
2022-10-31T19:31:49.765Z,95825.56
2022-10-31T19:36:51.169Z,95827.66
2022-10-31T19:41:52.574Z,95821.59
2022-10-31T19:46:54.404Z,95825.72
2022-10-31T19:51:55.872Z,95818.31
2022-10-31T19:56:57.283Z,95816.38
2022-10-31T20:01:58.729Z,95828.13
2022-10-31T20:07:00.166Z,95834.13
2022-10-31T20:12:02.808Z,95834.41
2022-10-31T20:17:04.524Z,95842.88
2022-10-31T20:22:05.941Z,95838.44
2022-10-31T20:27:07.449Z,95851.97
2022-10-31T20:32:08.849Z,95847.53
2022-10-31T20:37:10.272Z,95840.75
2022-10-31T20:42:11.664Z,95846.47
2022-10-31T20:47:13.100Z,95855.38
2022-10-31T20:52:14.521Z,95853.44
2022-10-31T20:57:15.949Z,95853.88
2022-10-31T21:02:17.467Z,95851.50
2022-10-31T21:07:18.929Z,95859.28
2022-10-31T21:12:20.309Z,95857.78
2022-10-31T21:17:22.919Z,95864.03
2022-10-31T21:22:24.339Z,95857.47
2022-10-31T21:27:25.880Z,95847.03
2022-10-31T21:32:27.293Z,95857.06
2022-10-31T21:37:28.676Z,95843.56
2022-10-31T21:42:30.058Z,95843.72
2022-10-31T21:47:31.457Z,95847.91
2022-10-31T21:52:32.869Z,95849.84
2022-10-31T21:57:34.289Z,95841.50
2022-10-31T22:02:36.503Z,95837.88
2022-10-31T22:07:37.880Z,95840.91
2022-10-31T22:12:39.249Z,95839.25
2022-10-31T22:17:40.707Z,95845.22
2022-10-31T22:22:42.113Z,95833.00
2022-10-31T22:27:43.527Z,95838.41
2022-10-31T22:32:44.923Z,95821.47
2022-10-31T22:37:46.353Z,95815.06
2022-10-31T22:42:47.751Z,95821.28
2022-10-31T22:47:49.156Z,95827.50
2022-10-31T22:52:50.572Z,95814.47
2022-10-31T22:57:51.966Z,95814.34
2022-10-31T23:02:53.324Z,95827.50
2022-10-31T23:07:54.711Z,95836.38
2022-10-31T23:12:56.109Z,95842.91
2022-10-31T23:17:57.508Z,95837.44
2022-10-31T23:22:59.330Z,95841.59
2022-10-31T23:28:00.976Z,95838.22
2022-10-31T23:33:02.667Z,95842.44
2022-10-31T23:38:04.511Z,95849.94
2022-10-31T23:43:06.981Z,95842.69
2022-10-31T23:48:08.412Z,95836.00
2022-10-31T23:53:09.804Z,95835.19
2022-10-31T23:58:11.200Z,95844.84
